Latest Weather Observations for Rottnest Island

IDW60901

Issued at 4:41 pm WST Saturday 30 May 2015 (issued every 10 minutes, with the page automatically refreshed every 10 minutes)

About weather observations | Map of Perth area stations | Latest observations for Perth area | Other Formats
Station Details ID: 009193 Name: ROTTNEST ISLAND Lat: -32.01 Lon: 115.50 Height: 43.1 m
Data from the previous 72 hours. | See also: Recent months at Rottnest Island
Date/Time
WST
Tmp

°C
App
Tmp
°C
Dew
Point
°C
Rel
Hum
%
Delta-T

°C
Wind Press
QNH
hPa
Press
MSL
hPa
Rain
since
9 am
mm
Dir
 
Spd
km/h
Gust
km/h
Spd
kts
Gust
kts
30/04:30pm 18.1 15.0 10.2 60 4.2 SSE 17 20 9 11 1023.6 1023.5 0.0
30/04:00pm 18.2 15.2 10.8 62 4.0 SSE 17 20 9 11 1023.6 1023.5 0.0
30/03:30pm 18.3 14.8 10.2 59 4.3 S 19 20 10 11 1023.6 1023.5 0.0
30/03:00pm 18.4 15.7 10.5 60 4.2 SSE 15 20 8 11 1023.7 1023.6 0.0
30/02:30pm 17.8 14.7 10.2 61 4.0 S 17 20 9 11 1023.8 1023.7 0.0
30/02:00pm 18.2 15.5 10.3 60 4.2 SSE 15 19 8 10 1024.1 1024.0 0.0
30/01:30pm 17.6 15.0 9.5 59 4.3 SSE 13 17 7 9 1024.3 1024.2 0.0
30/01:00pm 17.5 15.4 9.9 61 4.0 SSE 11 15 6 8 1024.5 1024.4 0.0
30/12:30pm 17.3 14.4 9.5 60 4.1 SSE 15 17 8 9 1024.6 1024.5 0.0
30/12:00pm 17.3 14.8 9.7 61 4.0 SSE 13 17 7 9 1025.1 1025.0 0.0
30/11:30am 17.2 13.9 9.6 61 4.0 SE 17 19 9 10 1025.6 1025.5 0.0
30/11:00am 17.7 16.2 9.3 58 4.4 E 7 11 4 6 1026.0 1025.9 0.0
30/10:30am 16.9 15.2 8.3 57 4.4 ENE 7 11 4 6 1026.5 1026.4 0.0
30/10:00am 16.6 13.9 8.8 60 4.0 E 13 17 7 9 1026.6 1026.5 0.0
30/09:30am 15.6 12.8 8.4 62 3.7 ENE 13 17 7 9 1026.6 1026.5 0.0
30/09:00am 15.5 12.7 8.5 63 3.5 ENE 13 17 7 9 1026.6 1026.5 0.0
30/08:30am 14.8 12.5 9.0 68 2.9 E 11 15 6 8 1026.4 1026.3 0.0
30/08:00am 13.7 10.8 8.3 70 2.7 E 13 17 7 9 1026.2 1026.1 0.0
30/07:30am 13.2 10.3 8.1 71 2.5 E 13 17 7 9 1026.2 1026.1 0.0
30/07:00am 12.7 10.1 7.8 72 2.4 E 11 13 6 7 1026.0 1025.9 0.0
30/06:30am 12.8 9.8 7.5 70 2.6 E 13 15 7 8 1025.8 1025.7 0.0
30/06:00am 12.9 9.4 7.4 69 2.7 E 15 17 8 9 1025.6 1025.5 0.0
30/05:30am 13.1 9.6 7.3 68 2.8 E 15 20 8 11 1025.5 1025.4 0.0
30/05:00am 13.4 10.3 7.2 66 3.0 E 13 17 7 9 1025.5 1025.4 0.0
30/04:30am 13.6 10.1 7.2 65 3.1 E 15 17 8 9 1025.4 1025.3 0.0
30/04:00am 13.6 10.0 6.9 64 3.2 E 15 20 8 11 1025.5 1025.4 0.0
30/03:30am 13.5 10.8 7.3 66 3.0 ENE 11 15 6 8 1025.6 1025.5 0.0
30/03:00am 13.9 10.7 7.0 63 3.3 E 13 19 7 10 1025.6 1025.5 0.0
30/02:30am 14.1 11.1 7.6 65 3.2 ESE 13 17 7 9 1025.5 1025.4 0.0
30/02:00am 14.2 11.1 7.3 63 3.4 E 13 17 7 9 1025.5 1025.4 0.0
30/01:30am 14.0 10.4 6.8 62 3.5 E 15 19 8 10 1025.4 1025.3 0.0
30/01:00am 14.1 10.5 6.7 61 3.6 E 15 20 8 11 1025.4 1025.3 0.0
30/12:30am 14.5 10.6 7.3 62 3.5 E 17 20 9 11 1025.5 1025.4 0.0
30/12:00am 14.6 11.3 7.9 64 3.3 E 15 20 8 11 1025.5 1025.4 0.0
 
Date/Time
WST
Tmp

°C
App
Tmp
°C
Dew
Point
°C
Rel
Hum
%
Delta-T

°C
Wind Press
QNH
hPa
Press
MSL
hPa
Rain
since
9 am
mm
Dir
 
Spd
km/h
Gust
km/h
Spd
kts
Gust
kts
29/11:30pm 14.6 11.4 8.5 67 3.1 ESE 15 20 8 11 1025.6 1025.5 0.0
29/11:00pm 15.0 11.4 8.3 64 3.4 ESE 17 20 9 11 1025.6 1025.5 0.0
29/10:30pm 15.4 11.8 8.4 63 3.5 ESE 17 22 9 12 1025.6 1025.5 0.0
29/10:00pm 15.6 12.6 9.3 66 3.2 ESE 15 22 8 12 1025.7 1025.6 0.0
29/09:30pm 15.8 12.1 9.5 66 3.3 SE 19 26 10 14 1025.8 1025.7 0.0
29/09:00pm 16.8 11.3 9.2 61 3.9 SE 28 37 15 20 1025.8 1025.7 0.0
29/08:30pm 17.2 11.8 9.4 60 4.1 SE 28 41 15 22 1025.7 1025.6 0.0
29/08:00pm 17.3 11.9 9.5 60 4.1 SSE 28 37 15 20 1025.8 1025.7 0.0
29/07:30pm 17.2 11.1 9.9 62 3.9 SSE 32 41 17 22 1025.5 1025.4 0.0
29/07:00pm 17.1 11.0 9.8 62 3.8 SSE 32 39 17 21 1025.0 1024.9 0.0
29/06:30pm 17.2 11.0 9.9 62 3.9 S 33 39 18 21 1024.5 1024.4 0.0
29/06:00pm 17.3 10.7 8.7 57 4.4 SSE 33 39 18 21 1024.1 1024.0 0.0
29/05:30pm 17.3 11.1 9.5 60 4.1 SSE 32 39 17 21 1023.5 1023.4 0.0
29/05:00pm 17.2 11.3 9.1 59 4.2 SSE 30 39 16 21 1023.3 1023.2 0.0
29/04:30pm 17.3 11.9 9.5 60 4.1 SSE 28 35 15 19 1023.2 1023.1 0.0
29/04:00pm 17.5 11.8 9.7 60 4.1 S 30 35 16 19 1023.2 1023.1 0.0
29/03:30pm 17.6 12.3 9.8 60 4.1 S 28 32 15 17 1023.2 1023.1 0.0
29/03:00pm 17.8 13.2 9.7 59 4.3 S 24 32 13 17 1023.1 1023.0 0.0
29/02:30pm 18.1 13.7 8.9 55 4.8 S 22 32 12 17 1023.2 1023.1 0.0
29/02:00pm 17.6 13.2 9.0 57 4.5 SSE 22 28 12 15 1023.3 1023.2 0.0
29/01:30pm 17.5 13.6 8.6 56 4.6 SSE 19 24 10 13 1023.5 1023.4 0.0
29/01:00pm 17.1 13.3 9.0 59 4.2 SE 19 28 10 15 1024.0 1023.9 0.0
29/12:30pm 16.8 13.1 9.5 62 3.8 SE 19 24 10 13 1024.3 1024.2 0.0
29/12:00pm 16.3 13.0 9.5 64 3.5 ESE 17 22 9 12 1024.8 1024.7 0.0
29/11:30am 16.3 13.3 9.3 63 3.6 ESE 15 24 8 13 1025.0 1024.9 0.0
29/11:00am 15.9 12.5 9.1 64 3.5 E 17 26 9 14 1025.5 1025.4 0.0
29/10:30am 15.3 11.3 9.0 66 3.2 E 20 28 11 15 1026.0 1025.9 0.0
29/10:00am 14.7 10.7 8.9 68 2.9 ENE 20 26 11 14 1026.2 1026.1 0.0
29/09:30am 14.4 10.6 9.0 70 2.8 E 19 26 10 14 1026.2 1026.1 0.0
29/09:00am 13.9 10.4 8.9 72 2.5 E 17 24 9 13 1026.3 1026.2 0.0
29/08:30am 13.2 9.3 8.7 74 2.3 E 19 24 10 13 1026.1 1026.0 0.0
29/08:00am 12.5 8.6 8.8 78 1.8 E 19 26 10 14 1026.1 1026.0 0.0
29/07:30am 11.8 8.2 8.3 79 1.7 E 17 22 9 12 1025.8 1025.7 0.0
29/07:00am 12.0 7.9 8.5 79 1.7 E 20 30 11 16 1025.5 1025.4 0.0
29/06:30am 12.0 8.0 8.3 78 1.8 E 19 26 10 14 1025.3 1025.2 0.0
29/06:00am 12.2 7.6 8.3 77 1.9 E 22 30 12 16 1025.1 1025.0 0.0
29/05:30am 12.1 8.1 8.4 78 1.8 E 19 26 10 14 1025.0 1024.9 0.0
29/05:00am 12.2 7.5 7.9 75 2.1 E 22 33 12 18 1025.0 1024.9 0.0
29/04:30am 12.1 8.0 7.8 75 2.1 E 19 28 10 15 1024.9 1024.8 0.0
29/04:00am 12.3 7.6 7.6 73 2.3 E 22 28 12 15 1024.9 1024.8 0.0
29/03:30am 12.3 7.9 7.4 72 2.4 E 20 32 11 17 1024.7 1024.6 0.0
29/03:00am 12.2 7.9 6.9 70 2.5 E 19 24 10 13 1024.7 1024.6 0.0
29/02:30am 12.8 8.0 7.3 69 2.7 E 22 35 12 19 1024.7 1024.6 0.0
29/02:00am 13.1 7.5 7.1 67 2.9 ESE 26 41 14 22 1024.8 1024.7 0.0
29/01:30am 13.3 8.1 7.1 66 3.0 E 24 33 13 18 1024.7 1024.6 0.0
29/01:00am 13.4 8.1 6.7 64 3.2 E 24 33 13 18 1024.8 1024.7 0.0
29/12:30am 13.3 8.6 6.2 62 3.4 E 20 30 11 16 1024.9 1024.8 0.0
29/12:00am 13.1 8.4 6.2 63 3.3 E 20 24 11 13 1025.0 1024.9 0.0
 
Date/Time
WST
Tmp

°C
App
Tmp
°C
Dew
Point
°C
Rel
Hum
%
Delta-T

°C
Wind Press
QNH
hPa
Press
MSL
hPa
Rain
since
9 am
mm
Dir
 
Spd
km/h
Gust
km/h
Spd
kts
Gust
kts
28/11:30pm 13.3 9.2 6.4 63 3.3 E 17 24 9 13 1025.0 1024.9 0.0
28/11:00pm 13.9 9.1 5.8 58 3.8 E 20 32 11 17 1025.0 1024.9 0.0
28/10:30pm 14.3 9.6 6.2 58 3.9 ESE 20 30 11 16 1025.0 1024.9 0.0
28/10:00pm 15.0 10.0 6.3 56 4.2 ESE 22 33 12 18 1025.0 1024.9 0.0
28/09:30pm 14.7 10.2 6.8 59 3.9 ESE 20 30 11 16 1025.0 1024.9 0.0
28/09:00pm 14.7 10.3 7.3 61 3.6 ESE 20 32 11 17 1024.7 1024.6 0.0
28/08:30pm 15.1 10.7 7.4 60 3.8 ESE 20 32 11 17 1024.4 1024.3 0.0
28/08:00pm 15.6 9.0 7.9 60 3.8 SE 32 39 17 21 1023.9 1023.8 0.0
28/07:30pm 16.3 12.2 6.4 52 4.8 SE 17 22 9 12 1023.8 1023.7 0.0
28/07:00pm 15.9 11.8 6.3 53 4.7 SSE 17 24 9 13 1023.6 1023.5 0.0
28/06:30pm 15.0 10.9 6.0 55 4.3 S 17 22 9 12 1023.3 1023.2 0.0
28/06:00pm 15.8 11.7 6.0 52 4.7 S 17 20 9 11 1023.0 1022.9 0.0
28/05:30pm 15.5 11.4 6.2 54 4.5 S 17 22 9 12 1022.9 1022.8 0.0
28/05:00pm 16.4 11.1 5.1 47 5.4 SSE 22 26 12 14 1022.8 1022.7 0.0
28/04:30pm 16.6 12.1 7.0 53 4.8 SSE 20 26 11 14 1022.7 1022.6 0.0
28/04:00pm 16.8 11.6 7.2 53 4.8 SSE 24 33 13 18 1022.6 1022.5 0.0
28/03:30pm 17.3 12.9 6.5 49 5.3 SSE 19 26 10 14 1022.6 1022.5 0.0
28/03:00pm 17.4 12.2 5.4 45 5.8 SE 22 32 12 17 1022.5 1022.4 0.0
28/02:30pm 17.7 13.0 5.9 46 5.8 SE 20 32 11 17 1022.5 1022.4 0.0
28/02:00pm 17.4 13.1 6.9 50 5.2 SE 19 26 10 14 1022.6 1022.5 0.0
28/01:30pm 17.2 14.1 8.9 58 4.3 SE 15 22 8 12 1022.8 1022.7 0.0
28/01:00pm 16.8 13.4 9.0 60 4.0 SE 17 20 9 11 1023.1 1023.0 0.0
28/12:30pm 16.6 13.7 9.8 64 3.6 SE 15 22 8 12 1023.5 1023.4 0.0
28/12:00pm 16.2 12.6 8.2 59 4.0 ESE 17 24 9 13 1023.9 1023.8 0.0
28/11:30am 15.8 12.6 8.5 62 3.7 ESE 15 24 8 13 1024.3 1024.2 0.0
28/11:00am 15.6 11.7 8.6 63 3.5 ESE 19 28 10 15 1024.5 1024.4 0.0
28/10:30am 14.7 10.5 8.4 66 3.2 ESE 20 28 11 15 1024.5 1024.4 0.0
28/10:00am 14.5 10.5 8.2 66 3.1 ESE 19 26 10 14 1024.5 1024.4 0.0
28/09:30am 14.3 10.4 8.5 68 2.9 ESE 19 28 10 15 1024.4 1024.3 0.0
28/09:00am 14.0 9.8 8.2 68 2.9 ESE 20 28 11 15 1024.3 1024.2 0.0
28/08:30am 14.1 10.1 8.3 68 2.9 ESE 19 26 10 14 1024.0 1023.9 0.0
28/08:00am 13.8 10.3 8.8 72 2.5 ESE 17 22 9 12 1023.7 1023.6 0.0
28/07:30am 13.3 9.7 8.4 72 2.4 ESE 17 24 9 13 1023.4 1023.3 0.0
28/07:00am 13.4 10.5 8.3 71 2.5 ESE 13 19 7 10 1023.1 1023.0 0.0
28/06:30am 13.2 9.9 8.1 71 2.5 ESE 15 19 8 10 1022.7 1022.6 0.0
28/06:00am 13.3 10.1 8.4 72 2.4 ESE 15 17 8 9 1022.3 1022.2 0.0
28/05:30am 13.5 10.0 7.1 65 3.1 E 15 17 8 9 1022.1 1022.0 0.0
28/05:00am 13.4 9.7 6.3 62 3.4 E 15 19 8 10 1021.9 1021.8 0.0
28/04:30am 13.3 9.6 6.4 63 3.3 E 15 17 8 9 1021.7 1021.6 0.0
28/04:00am 13.1 9.3 7.5 69 2.7 E 17 19 9 10 1021.7 1021.6 0.0
28/03:30am 13.4 9.9 7.4 67 2.9 ENE 15 19 8 10 1021.8 1021.7 0.0
28/03:00am 13.8 9.9 6.9 63 3.3 ENE 17 19 9 10 1021.7 1021.6 0.0
28/02:30am 13.9 10.1 5.8 58 3.8 ENE 15 19 8 10 1021.8 1021.7 0.0
28/02:00am 14.0 10.3 6.1 59 3.8 ENE 15 17 8 9 1021.9 1021.8 0.0
28/01:30am 14.0 10.2 5.9 58 3.9 ENE 15 19 8 10 1021.7 1021.6 0.0
28/01:00am 14.3 10.7 6.9 61 3.6 ENE 15 20 8 11 1021.8 1021.7 0.0
28/12:30am 14.7 10.6 6.3 57 4.1 ENE 17 20 9 11 1022.0 1021.9 0.0
28/12:00am 14.4 10.3 6.3 58 3.9 ENE 17 20 9 11 1022.1 1022.0 0.0
 
Date/Time
WST
Tmp

°C
App
Tmp
°C
Dew
Point
°C
Rel
Hum
%
Delta-T

°C
Wind Press
QNH
hPa
Press
MSL
hPa
Rain
since
9 am
mm
Dir
 
Spd
km/h
Gust
km/h
Spd
kts
Gust
kts
27/11:30pm 14.5 10.8 6.1 57 4.0 ENE 15 19 8 10 1022.1 1022.0 0.0
27/11:00pm 14.2 10.4 5.8 57 4.0 E 15 20 8 11 1022.2 1022.1 0.0
27/10:30pm 14.7 11.1 5.2 53 4.5 E 13 19 7 10 1022.3 1022.2 0.0
27/10:00pm 15.2 11.4 6.0 54 4.4 E 15 20 8 11 1022.1 1022.0 0.0
27/09:30pm 15.4 12.0 6.1 54 4.5 E 13 17 7 9 1022.4 1022.3 0.0
27/09:00pm 15.6 11.0 5.8 52 4.7 ESE 19 30 10 16 1022.2 1022.1 0.0
27/08:30pm 15.8 10.3 6.0 52 4.7 SE 24 35 13 19 1021.9 1021.8 0.0
27/08:00pm 15.8 10.3 5.7 51 4.8 SE 24 35 13 19 1022.0 1021.9 0.0
27/07:30pm 16.4 9.5 6.5 52 4.9 SSE 32 43 17 23 1021.6 1021.5 0.0
27/07:00pm 16.4 9.9 6.5 52 4.8 SSE 30 39 16 21 1021.3 1021.2 0.0
27/06:30pm 16.4 8.8 5.7 49 5.2 SSE 35 48 19 26 1020.9 1020.8 0.0
27/06:00pm 16.3 9.1 5.9 50 5.0 SSE 33 43 18 23 1020.7 1020.6 0.0
27/05:30pm 16.4 9.7 8.1 58 4.2 SSE 33 43 18 23 1020.8 1020.7 0.0
27/05:00pm 16.4 9.3 6.5 52 4.8 SSE 33 44 18 24 1020.6 1020.5 0.0

Latest Capital City Observations: Canberra | Sydney | Melbourne | Brisbane | Adelaide | Perth | Hobart | Darwin

Other Formats:

Comma delimited format used in spreadsheet applications
http://www.bom.gov.au/fwo/IDW60901/IDW60901.94602.axf

JavaScript Object Notation format (JSON) in row-major order
http://www.bom.gov.au/fwo/IDW60901/IDW60901.94602.json